Terminal Aerodrome Forecast
Issued by NWS Cleveland, OH

Home | Current Version | Previous Version | Graphics & Text | Print | Product List | Glossary On
Versions: 1 2 3 4 5 6 7 8 9 10 11 12 13 14 15 16 17 18 19 20 21 22 23
101
FTUS41 KCLE 271130
TAFTOL
TAF
KTOL 271130Z 2712/2812 09004KT P6SM SCT045 BKN150
     FM271700 15005KT P6SM VCSH SCT050 BKN120
     FM280700 15002KT 4SM BR VCSH BKN050=

USA.gov is the U.S. government's official web portal to all federal, state and local government web resources and services.